sensor_id;sensor_type;location;lat;lon;timestamp;P1;durP1;ratioP1;P2;durP2;ratioP2
72319;SDS011;60269;52.502;16.732;2023-11-21T00:00:08;34.15;;;11.10;;
72319;SDS011;60269;52.502;16.732;2023-11-21T00:04:04;35.93;;;11.10;;
72319;SDS011;60269;52.502;16.732;2023-11-21T00:07:40;32.80;;;10.98;;
72319;SDS011;60269;52.502;16.732;2023-11-21T00:11:13;31.17;;;10.60;;
72319;SDS011;60269;52.502;16.732;2023-11-21T00:14:47;50.10;;;12.50;;
72319;SDS011;60269;52.502;16.732;2023-11-21T00:18:19;33.83;;;11.52;;
72319;SDS011;60269;52.502;16.732;2023-11-21T00:21:51;41.53;;;10.63;;
72319;SDS011;60269;52.502;16.732;2023-11-21T00:25:23;35.20;;;11.47;;
72319;SDS011;60269;52.502;16.732;2023-11-21T00:28:56;31.27;;;10.48;;
72319;SDS011;60269;52.502;16.732;2023-11-21T00:32:29;33.70;;;11.45;;
72319;SDS011;60269;52.502;16.732;2023-11-21T00:36:00;37.05;;;11.35;;
72319;SDS011;60269;52.502;16.732;2023-11-21T00:39:32;34.37;;;12.13;;
72319;SDS011;60269;52.502;16.732;2023-11-21T00:43:06;37.13;;;11.77;;
72319;SDS011;60269;52.502;16.732;2023-11-21T00:46:38;39.00;;;13.00;;
72319;SDS011;60269;52.502;16.732;2023-11-21T00:50:10;40.40;;;13.17;;
72319;SDS011;60269;52.502;16.732;2023-11-21T00:53:42;45.78;;;13.05;;
72319;SDS011;60269;52.502;16.732;2023-11-21T00:57:14;42.60;;;12.13;;
72319;SDS011;60269;52.502;16.732;2023-11-21T01:00:46;42.30;;;12.27;;
72319;SDS011;60269;52.502;16.732;2023-11-21T01:04:20;36.40;;;12.82;;
72319;SDS011;60269;52.502;16.732;2023-11-21T01:07:52;36.30;;;12.23;;
72319;SDS011;60269;52.502;16.732;2023-11-21T01:11:24;43.03;;;12.90;;
72319;SDS011;60269;52.502;16.732;2023-11-21T01:14:56;38.83;;;13.30;;
72319;SDS011;60269;52.502;16.732;2023-11-21T01:18:32;37.53;;;13.90;;
72319;SDS011;60269;52.502;16.732;2023-11-21T01:22:04;40.13;;;12.93;;
72319;SDS011;60269;52.502;16.732;2023-11-21T01:25:36;41.30;;;13.43;;
72319;SDS011;60269;52.502;16.732;2023-11-21T01:29:08;38.88;;;12.07;;
72319;SDS011;60269;52.502;16.732;2023-11-21T01:32:40;40.63;;;13.70;;
72319;SDS011;60269;52.502;16.732;2023-11-21T01:36:12;44.40;;;13.07;;
72319;SDS011;60269;52.502;16.732;2023-11-21T01:39:44;40.20;;;13.40;;
72319;SDS011;60269;52.502;16.732;2023-11-21T01:43:17;42.35;;;13.30;;
72319;SDS011;60269;52.502;16.732;2023-11-21T01:46:49;50.58;;;14.68;;
72319;SDS011;60269;52.502;16.732;2023-11-21T01:50:22;42.13;;;14.27;;
72319;SDS011;60269;52.502;16.732;2023-11-21T01:53:56;42.35;;;13.68;;
72319;SDS011;60269;52.502;16.732;2023-11-21T01:57:27;44.15;;;13.73;;
72319;SDS011;60269;52.502;16.732;2023-11-21T02:01:00;36.40;;;12.07;;
72319;SDS011;60269;52.502;16.732;2023-11-21T02:04:32;39.35;;;12.32;;
72319;SDS011;60269;52.502;16.732;2023-11-21T02:08:04;39.67;;;14.13;;
72319;SDS011;60269;52.502;16.732;2023-11-21T02:11:37;38.80;;;12.50;;
72319;SDS011;60269;52.502;16.732;2023-11-21T02:15:11;43.15;;;13.25;;
72319;SDS011;60269;52.502;16.732;2023-11-21T02:18:47;40.63;;;12.32;;
72319;SDS011;60269;52.502;16.732;2023-11-21T02:22:20;39.22;;;12.50;;
72319;SDS011;60269;52.502;16.732;2023-11-21T02:25:53;42.33;;;12.27;;
72319;SDS011;60269;52.502;16.732;2023-11-21T02:29:26;43.45;;;13.35;;
72319;SDS011;60269;52.502;16.732;2023-11-21T02:33:00;49.85;;;13.63;;
72319;SDS011;60269;52.502;16.732;2023-11-21T02:36:33;43.90;;;13.67;;
72319;SDS011;60269;52.502;16.732;2023-11-21T02:40:07;48.17;;;14.07;;
72319;SDS011;60269;52.502;16.732;2023-11-21T02:43:41;43.78;;;13.73;;
72319;SDS011;60269;52.502;16.732;2023-11-21T02:47:13;43.17;;;12.57;;
72319;SDS011;60269;52.502;16.732;2023-11-21T02:50:45;41.28;;;12.63;;
72319;SDS011;60269;52.502;16.732;2023-11-21T02:54:17;45.35;;;14.52;;
72319;SDS011;60269;52.502;16.732;2023-11-21T02:57:51;42.60;;;13.55;;
72319;SDS011;60269;52.502;16.732;2023-11-21T03:01:23;43.97;;;11.90;;
72319;SDS011;60269;52.502;16.732;2023-11-21T03:04:55;29.35;;;10.82;;
72319;SDS011;60269;52.502;16.732;2023-11-21T03:08:28;35.38;;;10.38;;
72319;SDS011;60269;52.502;16.732;2023-11-21T03:12:00;31.80;;;9.17;;
72319;SDS011;60269;52.502;16.732;2023-11-21T03:15:32;32.78;;;9.88;;
72319;SDS011;60269;52.502;16.732;2023-11-21T03:19:04;32.72;;;10.27;;
72319;SDS011;60269;52.502;16.732;2023-11-21T03:22:36;30.93;;;9.03;;
72319;SDS011;60269;52.502;16.732;2023-11-21T03:26:13;27.42;;;7.57;;
72319;SDS011;60269;52.502;16.732;2023-11-21T03:29:45;23.58;;;8.88;;
72319;SDS011;60269;52.502;16.732;2023-11-21T03:33:18;24.95;;;7.10;;
72319;SDS011;60269;52.502;16.732;2023-11-21T03:36:51;23.63;;;7.00;;
72319;SDS011;60269;52.502;16.732;2023-11-21T03:40:23;25.45;;;7.20;;
72319;SDS011;60269;52.502;16.732;2023-11-21T03:43:56;23.10;;;7.10;;
72319;SDS011;60269;52.502;16.732;2023-11-21T03:47:28;22.40;;;6.53;;
72319;SDS011;60269;52.502;16.732;2023-11-21T03:51:00;25.10;;;7.45;;
72319;SDS011;60269;52.502;16.732;2023-11-21T03:54:32;29.08;;;7.43;;
72319;SDS011;60269;52.502;16.732;2023-11-21T03:58:04;22.70;;;6.77;;
72319;SDS011;60269;52.502;16.732;2023-11-21T04:01:36;19.70;;;6.95;;
72319;SDS011;60269;52.502;16.732;2023-11-21T04:05:08;20.27;;;6.45;;
72319;SDS011;60269;52.502;16.732;2023-11-21T04:08:41;17.90;;;5.25;;
72319;SDS011;60269;52.502;16.732;2023-11-21T04:12:13;19.23;;;6.00;;
72319;SDS011;60269;52.502;16.732;2023-11-21T04:15:45;15.75;;;5.00;;
72319;SDS011;60269;52.502;16.732;2023-11-21T04:19:17;17.92;;;5.68;;
72319;SDS011;60269;52.502;16.732;2023-11-21T04:22:49;13.20;;;4.10;;
72319;SDS011;60269;52.502;16.732;2023-11-21T04:26:21;13.40;;;4.38;;
72319;SDS011;60269;52.502;16.732;2023-11-21T04:29:53;16.85;;;5.28;;
72319;SDS011;60269;52.502;16.732;2023-11-21T04:33:25;15.23;;;4.70;;
72319;SDS011;60269;52.502;16.732;2023-11-21T04:36:57;13.10;;;4.57;;
72319;SDS011;60269;52.502;16.732;2023-11-21T04:40:29;11.48;;;4.30;;
72319;SDS011;60269;52.502;16.732;2023-11-21T04:44:01;13.57;;;5.40;;
72319;SDS011;60269;52.502;16.732;2023-11-21T04:47:34;10.97;;;3.30;;
72319;SDS011;60269;52.502;16.732;2023-11-21T04:51:07;11.98;;;4.32;;
72319;SDS011;60269;52.502;16.732;2023-11-21T04:54:39;11.20;;;3.53;;
72319;SDS011;60269;52.502;16.732;2023-11-21T04:58:12;13.37;;;3.37;;
72319;SDS011;60269;52.502;16.732;2023-11-21T05:01:44;11.75;;;3.53;;
72319;SDS011;60269;52.502;16.732;2023-11-21T05:05:16;11.25;;;2.90;;
72319;SDS011;60269;52.502;16.732;2023-11-21T05:08:48;11.43;;;3.33;;
72319;SDS011;60269;52.502;16.732;2023-11-21T05:12:21;10.32;;;2.38;;
72319;SDS011;60269;52.502;16.732;2023-11-21T05:15:58;8.60;;;2.85;;
72319;SDS011;60269;52.502;16.732;2023-11-21T05:19:30;11.65;;;3.30;;
72319;SDS011;60269;52.502;16.732;2023-11-21T05:23:02;10.13;;;3.00;;
72319;SDS011;60269;52.502;16.732;2023-11-21T05:26:34;11.98;;;3.60;;
72319;SDS011;60269;52.502;16.732;2023-11-21T05:30:06;8.50;;;3.00;;
72319;SDS011;60269;52.502;16.732;2023-11-21T05:33:43;9.70;;;3.73;;
72319;SDS011;60269;52.502;16.732;2023-11-21T05:37:15;10.77;;;3.55;;
72319;SDS011;60269;52.502;16.732;2023-11-21T05:40:47;9.90;;;2.85;;
72319;SDS011;60269;52.502;16.732;2023-11-21T05:44:19;9.70;;;3.40;;
72319;SDS011;60269;52.502;16.732;2023-11-21T05:47:51;9.30;;;3.20;;
72319;SDS011;60269;52.502;16.732;2023-11-21T05:51:24;10.23;;;3.47;;
72319;SDS011;60269;52.502;16.732;2023-11-21T05:54:56;11.88;;;3.95;;
72319;SDS011;60269;52.502;16.732;2023-11-21T05:58:28;14.50;;;4.47;;
72319;SDS011;60269;52.502;16.732;2023-11-21T06:02:00;11.73;;;3.97;;
72319;SDS011;60269;52.502;16.732;2023-11-21T06:05:32;13.15;;;4.35;;
72319;SDS011;60269;52.502;16.732;2023-11-21T06:09:05;15.83;;;5.33;;
72319;SDS011;60269;52.502;16.732;2023-11-21T06:12:43;13.65;;;4.65;;
72319;SDS011;60269;52.502;16.732;2023-11-21T06:16:15;14.23;;;4.78;;
72319;SDS011;60269;52.502;16.732;2023-11-21T06:19:50;15.43;;;5.03;;
72319;SDS011;60269;52.502;16.732;2023-11-21T06:23:24;14.88;;;5.00;;
72319;SDS011;60269;52.502;16.732;2023-11-21T06:26:56;14.80;;;5.20;;
72319;SDS011;60269;52.502;16.732;2023-11-21T06:30:28;13.57;;;5.30;;
72319;SDS011;60269;52.502;16.732;2023-11-21T06:34:00;14.53;;;5.97;;
72319;SDS011;60269;52.502;16.732;2023-11-21T06:37:32;15.15;;;6.25;;
72319;SDS011;60269;52.502;16.732;2023-11-21T06:41:05;13.18;;;4.85;;
72319;SDS011;60269;52.502;16.732;2023-11-21T06:44:37;12.67;;;5.03;;
72319;SDS011;60269;52.502;16.732;2023-11-21T06:48:09;16.63;;;5.70;;
72319;SDS011;60269;52.502;16.732;2023-11-21T06:51:42;13.75;;;4.55;;
72319;SDS011;60269;52.502;16.732;2023-11-21T06:55:14;13.27;;;4.37;;
72319;SDS011;60269;52.502;16.732;2023-11-21T06:58:47;12.10;;;4.20;;
72319;SDS011;60269;52.502;16.732;2023-11-21T07:02:19;14.57;;;4.85;;
72319;SDS011;60269;52.502;16.732;2023-11-21T07:05:51;11.10;;;3.97;;
72319;SDS011;60269;52.502;16.732;2023-11-21T07:09:23;11.97;;;4.40;;
72319;SDS011;60269;52.502;16.732;2023-11-21T07:12:56;11.52;;;4.68;;
72319;SDS011;60269;52.502;16.732;2023-11-21T07:16:28;12.30;;;4.65;;
72319;SDS011;60269;52.502;16.732;2023-11-21T07:20:02;10.80;;;3.80;;
72319;SDS011;60269;52.502;16.732;2023-11-21T07:23:35;11.23;;;4.40;;
72319;SDS011;60269;52.502;16.732;2023-11-21T07:27:08;12.55;;;4.32;;
72319;SDS011;60269;52.502;16.732;2023-11-21T07:30:40;13.23;;;4.63;;
72319;SDS011;60269;52.502;16.732;2023-11-21T07:34:12;15.27;;;4.82;;
72319;SDS011;60269;52.502;16.732;2023-11-21T07:37:44;11.38;;;4.25;;
72319;SDS011;60269;52.502;16.732;2023-11-21T07:41:16;11.88;;;4.22;;
72319;SDS011;60269;52.502;16.732;2023-11-21T07:45:01;13.77;;;4.73;;
72319;SDS011;60269;52.502;16.732;2023-11-21T07:48:34;11.52;;;4.55;;
72319;SDS011;60269;52.502;16.732;2023-11-21T07:52:07;12.45;;;3.78;;
72319;SDS011;60269;52.502;16.732;2023-11-21T07:55:38;11.10;;;3.87;;
72319;SDS011;60269;52.502;16.732;2023-11-21T07:59:11;12.23;;;4.22;;
72319;SDS011;60269;52.502;16.732;2023-11-21T08:02:43;12.32;;;4.55;;
72319;SDS011;60269;52.502;16.732;2023-11-21T08:06:18;12.23;;;4.47;;
72319;SDS011;60269;52.502;16.732;2023-11-21T08:09:49;12.70;;;4.35;;
72319;SDS011;60269;52.502;16.732;2023-11-21T08:13:22;13.60;;;4.88;;
72319;SDS011;60269;52.502;16.732;2023-11-21T08:16:55;11.45;;;4.03;;
72319;SDS011;60269;52.502;16.732;2023-11-21T08:20:29;12.63;;;4.73;;
72319;SDS011;60269;52.502;16.732;2023-11-21T08:24:01;12.82;;;4.82;;
72319;SDS011;60269;52.502;16.732;2023-11-21T08:27:35;12.50;;;4.30;;
72319;SDS011;60269;52.502;16.732;2023-11-21T08:31:08;13.07;;;4.70;;
72319;SDS011;60269;52.502;16.732;2023-11-21T08:34:41;15.63;;;5.53;;
72319;SDS011;60269;52.502;16.732;2023-11-21T08:38:16;17.02;;;5.25;;
72319;SDS011;60269;52.502;16.732;2023-11-21T08:41:49;13.33;;;4.83;;
72319;SDS011;60269;52.502;16.732;2023-11-21T08:45:21;16.38;;;5.28;;
72319;SDS011;60269;52.502;16.732;2023-11-21T08:48:54;16.35;;;5.68;;
72319;SDS011;60269;52.502;16.732;2023-11-21T08:52:25;15.90;;;5.38;;
72319;SDS011;60269;52.502;16.732;2023-11-21T08:55:58;14.33;;;6.00;;
72319;SDS011;60269;52.502;16.732;2023-11-21T08:59:30;18.75;;;7.15;;
72319;SDS011;60269;52.502;16.732;2023-11-21T09:03:02;18.30;;;7.00;;
72319;SDS011;60269;52.502;16.732;2023-11-21T09:06:35;21.00;;;7.50;;
72319;SDS011;60269;52.502;16.732;2023-11-21T09:10:07;19.23;;;7.60;;
72319;SDS011;60269;52.502;16.732;2023-11-21T09:13:41;22.60;;;7.95;;
72319;SDS011;60269;52.502;16.732;2023-11-21T09:17:13;19.63;;;9.00;;
72319;SDS011;60269;52.502;16.732;2023-11-21T09:20:46;17.35;;;7.28;;
72319;SDS011;60269;52.502;16.732;2023-11-21T09:24:18;25.27;;;7.35;;
72319;SDS011;60269;52.502;16.732;2023-11-21T09:27:50;20.75;;;7.15;;
72319;SDS011;60269;52.502;16.732;2023-11-21T09:31:22;18.77;;;8.00;;
72319;SDS011;60269;52.502;16.732;2023-11-21T09:34:55;15.35;;;6.43;;
72319;SDS011;60269;52.502;16.732;2023-11-21T09:38:30;18.48;;;7.38;;
72319;SDS011;60269;52.502;16.732;2023-11-21T09:45:42;19.50;;;7.32;;
72319;SDS011;60269;52.502;16.732;2023-11-21T09:49:18;20.17;;;7.90;;
72319;SDS011;60269;52.502;16.732;2023-11-21T09:53:03;22.83;;;8.57;;
72319;SDS011;60269;52.502;16.732;2023-11-21T09:56:44;19.52;;;7.85;;
72319;SDS011;60269;52.502;16.732;2023-11-21T10:00:18;19.33;;;7.57;;
72319;SDS011;60269;52.502;16.732;2023-11-21T10:03:52;18.38;;;7.78;;
72319;SDS011;60269;52.502;16.732;2023-11-21T10:07:25;17.90;;;7.67;;
72319;SDS011;60269;52.502;16.732;2023-11-21T10:10:58;21.42;;;7.85;;
72319;SDS011;60269;52.502;16.732;2023-11-21T10:14:31;19.63;;;8.13;;
72319;SDS011;60269;52.502;16.732;2023-11-21T10:18:04;17.97;;;7.20;;
72319;SDS011;60269;52.502;16.732;2023-11-21T10:21:39;19.73;;;7.80;;
72319;SDS011;60269;52.502;16.732;2023-11-21T10:25:11;23.45;;;7.95;;
72319;SDS011;60269;52.502;16.732;2023-11-21T10:28:58;20.47;;;7.37;;
72319;SDS011;60269;52.502;16.732;2023-11-21T10:32:32;20.15;;;7.22;;
72319;SDS011;60269;52.502;16.732;2023-11-21T10:36:06;19.20;;;7.88;;
72319;SDS011;60269;52.502;16.732;2023-11-21T10:39:38;24.50;;;8.13;;
72319;SDS011;60269;52.502;16.732;2023-11-21T10:43:11;20.10;;;7.93;;
72319;SDS011;60269;52.502;16.732;2023-11-21T10:46:45;19.60;;;8.40;;
72319;SDS011;60269;52.502;16.732;2023-11-21T10:50:22;19.70;;;7.75;;
72319;SDS011;60269;52.502;16.732;2023-11-21T10:53:55;19.40;;;7.23;;
72319;SDS011;60269;52.502;16.732;2023-11-21T10:57:28;20.50;;;7.18;;
72319;SDS011;60269;52.502;16.732;2023-11-21T11:01:01;18.42;;;6.97;;
72319;SDS011;60269;52.502;16.732;2023-11-21T11:04:37;19.93;;;8.50;;
72319;SDS011;60269;52.502;16.732;2023-11-21T11:08:11;21.25;;;7.88;;
72319;SDS011;60269;52.502;16.732;2023-11-21T11:11:44;22.65;;;8.35;;
72319;SDS011;60269;52.502;16.732;2023-11-21T11:15:19;24.10;;;9.23;;
72319;SDS011;60269;52.502;16.732;2023-11-21T11:18:51;20.80;;;8.07;;
72319;SDS011;60269;52.502;16.732;2023-11-21T11:22:55;24.30;;;8.10;;
72319;SDS011;60269;52.502;16.732;2023-11-21T11:26:27;21.98;;;8.68;;
72319;SDS011;60269;52.502;16.732;2023-11-21T11:30:45;23.07;;;8.23;;
72319;SDS011;60269;52.502;16.732;2023-11-21T11:34:31;21.10;;;7.90;;
72319;SDS011;60269;52.502;16.732;2023-11-21T11:38:08;20.60;;;7.90;;
72319;SDS011;60269;52.502;16.732;2023-11-21T11:41:43;22.77;;;9.43;;
72319;SDS011;60269;52.502;16.732;2023-11-21T11:45:17;24.05;;;8.80;;
72319;SDS011;60269;52.502;16.732;2023-11-21T11:49:02;24.83;;;9.82;;
72319;SDS011;60269;52.502;16.732;2023-11-21T11:52:38;28.30;;;10.70;;
72319;SDS011;60269;52.502;16.732;2023-11-21T11:56:34;25.37;;;10.00;;
72319;SDS011;60269;52.502;16.732;2023-11-21T12:07:52;19.70;;;7.90;;
72319;SDS011;60269;52.502;16.732;2023-11-21T12:11:30;27.83;;;9.30;;
72319;SDS011;60269;52.502;16.732;2023-11-21T12:15:07;22.38;;;7.63;;
72319;SDS011;60269;52.502;16.732;2023-11-21T12:18:39;22.30;;;8.33;;
72319;SDS011;60269;52.502;16.732;2023-11-21T12:22:11;24.00;;;8.88;;
72319;SDS011;60269;52.502;16.732;2023-11-21T12:25:44;21.83;;;8.75;;
72319;SDS011;60269;52.502;16.732;2023-11-21T12:29:16;24.92;;;8.68;;
72319;SDS011;60269;52.502;16.732;2023-11-21T12:32:51;24.27;;;8.83;;
72319;SDS011;60269;52.502;16.732;2023-11-21T12:36:25;27.25;;;9.95;;
72319;SDS011;60269;52.502;16.732;2023-11-21T12:39:58;23.77;;;9.02;;
72319;SDS011;60269;52.502;16.732;2023-11-21T12:43:30;26.60;;;9.80;;
72319;SDS011;60269;52.502;16.732;2023-11-21T12:47:04;23.13;;;9.93;;
72319;SDS011;60269;52.502;16.732;2023-11-21T12:50:37;21.52;;;8.38;;
72319;SDS011;60269;52.502;16.732;2023-11-21T12:54:10;24.10;;;9.60;;
72319;SDS011;60269;52.502;16.732;2023-11-21T12:57:44;28.35;;;9.32;;
72319;SDS011;60269;52.502;16.732;2023-11-21T13:01:17;26.05;;;10.02;;
72319;SDS011;60269;52.502;16.732;2023-11-21T13:04:54;23.40;;;8.82;;
72319;SDS011;60269;52.502;16.732;2023-11-21T13:08:30;23.97;;;9.00;;
72319;SDS011;60269;52.502;16.732;2023-11-21T13:12:06;27.05;;;9.27;;
72319;SDS011;60269;52.502;16.732;2023-11-21T13:15:40;26.05;;;9.90;;
72319;SDS011;60269;52.502;16.732;2023-11-21T13:19:15;21.50;;;8.33;;
72319;SDS011;60269;52.502;16.732;2023-11-21T13:22:54;23.70;;;8.95;;
72319;SDS011;60269;52.502;16.732;2023-11-21T13:26:30;26.30;;;9.43;;
72319;SDS011;60269;52.502;16.732;2023-11-21T13:30:04;24.33;;;9.23;;
72319;SDS011;60269;52.502;16.732;2023-11-21T13:33:40;23.85;;;8.63;;
72319;SDS011;60269;52.502;16.732;2023-11-21T13:37:18;22.10;;;8.18;;
72319;SDS011;60269;52.502;16.732;2023-11-21T13:40:53;20.13;;;8.60;;
72319;SDS011;60269;52.502;16.732;2023-11-21T13:44:26;22.10;;;9.10;;
72319;SDS011;60269;52.502;16.732;2023-11-21T13:48:00;26.48;;;9.75;;
72319;SDS011;60269;52.502;16.732;2023-11-21T13:51:33;20.33;;;8.35;;
72319;SDS011;60269;52.502;16.732;2023-11-21T13:55:17;22.57;;;8.37;;
72319;SDS011;60269;52.502;16.732;2023-11-21T13:58:49;18.30;;;7.32;;
72319;SDS011;60269;52.502;16.732;2023-11-21T14:02:26;18.52;;;7.88;;
72319;SDS011;60269;52.502;16.732;2023-11-21T14:06:06;19.33;;;7.70;;
72319;SDS011;60269;52.502;16.732;2023-11-21T14:09:45;19.52;;;8.32;;
72319;SDS011;60269;52.502;16.732;2023-11-21T14:13:18;23.30;;;8.30;;
72319;SDS011;60269;52.502;16.732;2023-11-21T14:16:54;21.00;;;7.82;;
72319;SDS011;60269;52.502;16.732;2023-11-21T14:20:28;20.13;;;7.50;;
72319;SDS011;60269;52.502;16.732;2023-11-21T14:24:01;23.63;;;8.52;;
72319;SDS011;60269;52.502;16.732;2023-11-21T14:27:34;19.80;;;8.88;;
72319;SDS011;60269;52.502;16.732;2023-11-21T14:31:07;24.70;;;8.53;;
72319;SDS011;60269;52.502;16.732;2023-11-21T14:34:44;22.27;;;8.45;;
72319;SDS011;60269;52.502;16.732;2023-11-21T14:38:19;25.25;;;9.45;;
72319;SDS011;60269;52.502;16.732;2023-11-21T14:41:51;22.53;;;9.00;;
72319;SDS011;60269;52.502;16.732;2023-11-21T14:45:25;21.73;;;8.40;;
72319;SDS011;60269;52.502;16.732;2023-11-21T14:48:58;24.20;;;9.07;;
72319;SDS011;60269;52.502;16.732;2023-11-21T14:52:48;23.17;;;9.38;;
72319;SDS011;60269;52.502;16.732;2023-11-21T14:56:34;25.80;;;9.70;;
72319;SDS011;60269;52.502;16.732;2023-11-21T15:00:06;24.27;;;8.65;;
72319;SDS011;60269;52.502;16.732;2023-11-21T15:03:54;23.95;;;9.18;;
72319;SDS011;60269;52.502;16.732;2023-11-21T15:07:26;24.50;;;9.10;;
72319;SDS011;60269;52.502;16.732;2023-11-21T15:10:59;24.63;;;9.07;;
72319;SDS011;60269;52.502;16.732;2023-11-21T15:14:31;21.35;;;7.68;;
72319;SDS011;60269;52.502;16.732;2023-11-21T15:18:03;20.07;;;8.33;;
72319;SDS011;60269;52.502;16.732;2023-11-21T15:21:36;28.45;;;10.23;;
72319;SDS011;60269;52.502;16.732;2023-11-21T15:25:08;22.75;;;8.48;;
72319;SDS011;60269;52.502;16.732;2023-11-21T15:28:42;20.65;;;8.30;;
72319;SDS011;60269;52.502;16.732;2023-11-21T15:32:14;22.63;;;8.03;;
72319;SDS011;60269;52.502;16.732;2023-11-21T15:35:46;21.30;;;7.40;;
72319;SDS011;60269;52.502;16.732;2023-11-21T15:39:18;19.30;;;6.47;;
72319;SDS011;60269;52.502;16.732;2023-11-21T15:42:50;18.67;;;6.80;;
72319;SDS011;60269;52.502;16.732;2023-11-21T15:46:22;16.65;;;6.45;;
72319;SDS011;60269;52.502;16.732;2023-11-21T15:49:55;22.15;;;8.52;;
72319;SDS011;60269;52.502;16.732;2023-11-21T15:53:28;24.53;;;8.50;;
72319;SDS011;60269;52.502;16.732;2023-11-21T15:57:00;20.95;;;8.07;;
72319;SDS011;60269;52.502;16.732;2023-11-21T16:00:32;21.25;;;8.07;;
72319;SDS011;60269;52.502;16.732;2023-11-21T16:04:04;21.58;;;7.97;;
72319;SDS011;60269;52.502;16.732;2023-11-21T16:07:36;24.37;;;7.73;;
72319;SDS011;60269;52.502;16.732;2023-11-21T16:11:11;21.75;;;8.70;;
72319;SDS011;60269;52.502;16.732;2023-11-21T16:14:42;20.00;;;7.15;;
72319;SDS011;60269;52.502;16.732;2023-11-21T16:18:17;20.77;;;7.40;;
72319;SDS011;60269;52.502;16.732;2023-11-21T16:21:51;24.27;;;8.90;;
72319;SDS011;60269;52.502;16.732;2023-11-21T16:25:24;19.33;;;6.10;;
72319;SDS011;60269;52.502;16.732;2023-11-21T16:28:57;20.13;;;7.97;;
72319;SDS011;60269;52.502;16.732;2023-11-21T16:32:29;20.90;;;7.75;;
72319;SDS011;60269;52.502;16.732;2023-11-21T16:36:02;19.13;;;6.93;;
72319;SDS011;60269;52.502;16.732;2023-11-21T16:39:34;19.33;;;7.45;;
72319;SDS011;60269;52.502;16.732;2023-11-21T16:43:08;19.80;;;6.70;;
72319;SDS011;60269;52.502;16.732;2023-11-21T16:46:43;16.67;;;6.45;;
72319;SDS011;60269;52.502;16.732;2023-11-21T16:50:21;18.80;;;6.32;;
72319;SDS011;60269;52.502;16.732;2023-11-21T16:53:54;20.47;;;6.90;;
72319;SDS011;60269;52.502;16.732;2023-11-21T16:57:25;19.95;;;6.75;;
72319;SDS011;60269;52.502;16.732;2023-11-21T17:00:57;16.48;;;5.57;;
72319;SDS011;60269;52.502;16.732;2023-11-21T17:04:29;18.50;;;6.33;;
72319;SDS011;60269;52.502;16.732;2023-11-21T17:08:02;19.02;;;6.13;;
72319;SDS011;60269;52.502;16.732;2023-11-21T17:11:34;19.83;;;6.97;;
72319;SDS011;60269;52.502;16.732;2023-11-21T17:15:06;20.67;;;6.82;;
72319;SDS011;60269;52.502;16.732;2023-11-21T17:18:40;19.03;;;7.23;;
72319;SDS011;60269;52.502;16.732;2023-11-21T17:22:14;19.13;;;7.65;;
72319;SDS011;60269;52.502;16.732;2023-11-21T17:25:47;18.45;;;6.75;;
72319;SDS011;60269;52.502;16.732;2023-11-21T17:29:19;17.73;;;6.10;;
72319;SDS011;60269;52.502;16.732;2023-11-21T17:32:51;16.75;;;6.85;;
72319;SDS011;60269;52.502;16.732;2023-11-21T17:36:23;22.73;;;7.18;;
72319;SDS011;60269;52.502;16.732;2023-11-21T17:39:56;14.90;;;6.03;;
72319;SDS011;60269;52.502;16.732;2023-11-21T17:43:28;15.43;;;5.43;;
72319;SDS011;60269;52.502;16.732;2023-11-21T17:47:00;13.77;;;5.38;;
72319;SDS011;60269;52.502;16.732;2023-11-21T17:50:33;16.23;;;5.40;;
72319;SDS011;60269;52.502;16.732;2023-11-21T17:54:06;13.80;;;4.80;;
72319;SDS011;60269;52.502;16.732;2023-11-21T17:57:39;18.88;;;6.18;;
72319;SDS011;60269;52.502;16.732;2023-11-21T18:01:12;14.90;;;4.63;;
72319;SDS011;60269;52.502;16.732;2023-11-21T18:04:44;14.77;;;4.83;;
72319;SDS011;60269;52.502;16.732;2023-11-21T18:08:17;14.00;;;5.25;;
72319;SDS011;60269;52.502;16.732;2023-11-21T18:11:49;16.60;;;5.25;;
72319;SDS011;60269;52.502;16.732;2023-11-21T18:15:21;14.67;;;5.07;;
72319;SDS011;60269;52.502;16.732;2023-11-21T18:18:53;14.35;;;4.43;;
72319;SDS011;60269;52.502;16.732;2023-11-21T18:22:25;15.70;;;4.43;;
72319;SDS011;60269;52.502;16.732;2023-11-21T18:25:58;13.65;;;4.88;;
72319;SDS011;60269;52.502;16.732;2023-11-21T18:29:31;16.80;;;4.47;;
72319;SDS011;60269;52.502;16.732;2023-11-21T18:33:03;12.27;;;4.28;;
72319;SDS011;60269;52.502;16.732;2023-11-21T18:36:37;11.77;;;3.80;;
72319;SDS011;60269;52.502;16.732;2023-11-21T18:40:09;13.27;;;3.67;;
72319;SDS011;60269;52.502;16.732;2023-11-21T18:43:41;13.23;;;3.72;;
72319;SDS011;60269;52.502;16.732;2023-11-21T18:47:13;12.52;;;4.10;;
72319;SDS011;60269;52.502;16.732;2023-11-21T18:50:48;14.60;;;4.63;;
72319;SDS011;60269;52.502;16.732;2023-11-21T18:54:23;13.63;;;3.33;;
72319;SDS011;60269;52.502;16.732;2023-11-21T18:57:55;10.52;;;3.30;;
72319;SDS011;60269;52.502;16.732;2023-11-21T19:01:30;15.85;;;4.70;;
72319;SDS011;60269;52.502;16.732;2023-11-21T19:05:03;13.60;;;4.07;;
72319;SDS011;60269;52.502;16.732;2023-11-21T19:08:37;11.23;;;3.45;;
72319;SDS011;60269;52.502;16.732;2023-11-21T19:12:09;12.73;;;4.15;;
72319;SDS011;60269;52.502;16.732;2023-11-21T19:15:41;16.00;;;4.87;;
72319;SDS011;60269;52.502;16.732;2023-11-21T19:19:15;15.93;;;3.95;;
72319;SDS011;60269;52.502;16.732;2023-11-21T19:22:51;16.23;;;4.28;;
72319;SDS011;60269;52.502;16.732;2023-11-21T19:26:23;16.53;;;5.13;;
72319;SDS011;60269;52.502;16.732;2023-11-21T19:29:55;15.95;;;4.90;;
72319;SDS011;60269;52.502;16.732;2023-11-21T19:33:27;12.63;;;4.15;;
72319;SDS011;60269;52.502;16.732;2023-11-21T19:36:59;17.58;;;3.83;;
72319;SDS011;60269;52.502;16.732;2023-11-21T19:40:32;11.83;;;4.03;;
72319;SDS011;60269;52.502;16.732;2023-11-21T19:44:04;15.23;;;4.65;;
72319;SDS011;60269;52.502;16.732;2023-11-21T19:47:36;12.45;;;3.75;;
72319;SDS011;60269;52.502;16.732;2023-11-21T19:51:11;19.90;;;5.17;;
72319;SDS011;60269;52.502;16.732;2023-11-21T19:54:43;16.88;;;5.45;;
72319;SDS011;60269;52.502;16.732;2023-11-21T19:58:15;13.77;;;4.22;;
72319;SDS011;60269;52.502;16.732;2023-11-21T20:01:49;14.60;;;4.37;;
72319;SDS011;60269;52.502;16.732;2023-11-21T20:05:22;12.32;;;4.15;;
72319;SDS011;60269;52.502;16.732;2023-11-21T20:08:54;15.85;;;5.03;;
72319;SDS011;60269;52.502;16.732;2023-11-21T20:12:28;16.88;;;4.43;;
72319;SDS011;60269;52.502;16.732;2023-11-21T20:16:01;14.87;;;4.80;;
72319;SDS011;60269;52.502;16.732;2023-11-21T20:19:33;17.65;;;4.82;;
72319;SDS011;60269;52.502;16.732;2023-11-21T20:23:05;13.32;;;3.97;;
72319;SDS011;60269;52.502;16.732;2023-11-21T20:26:38;13.73;;;3.97;;
72319;SDS011;60269;52.502;16.732;2023-11-21T20:30:13;11.38;;;3.05;;
72319;SDS011;60269;52.502;16.732;2023-11-21T20:33:45;15.23;;;4.22;;
72319;SDS011;60269;52.502;16.732;2023-11-21T20:37:20;14.70;;;3.67;;
72319;SDS011;60269;52.502;16.732;2023-11-21T20:40:51;15.55;;;4.35;;
72319;SDS011;60269;52.502;16.732;2023-11-21T20:44:24;16.75;;;4.45;;
72319;SDS011;60269;52.502;16.732;2023-11-21T20:47:56;12.68;;;3.90;;
72319;SDS011;60269;52.502;16.732;2023-11-21T20:51:29;14.50;;;4.20;;
72319;SDS011;60269;52.502;16.732;2023-11-21T20:55:03;13.38;;;4.30;;